Time;durP1;ratioP1;P1;durP2;ratioP2;P2;SDS_P1;SDS_P2;PMS_P1;PMS_P2;Temp;Humidity;BMP_temperature;BMP_pressure;BME280_temperature;BME280_humidity;BME280_pressure;Samples;Min_cycle;Max_cycle;Signal;HPM_P1;HPM_P2
2023/03/16 00:00:50;;;;;;;10.40;4.10;;;-1.50;99.90;;;;;;5021676;28;20890;-84
2023/03/16 00:03:18;;;;;;;6.93;4.20;;;-1.60;99.90;;;;;;5026316;28;20284;-84
2023/03/16 00:05:50;;;;;;;10.30;4.23;;;-1.60;99.90;;;;;;5026141;28;20238;-81
2023/03/16 00:08:18;;;;;;;12.70;4.27;;;-1.60;99.90;;;;;;5009307;28;20712;-80
2023/03/16 00:10:46;;;;;;;15.87;4.30;;;-1.70;99.90;;;;;;5007926;28;20700;-80
2023/03/16 00:13:14;;;;;;;13.63;4.00;;;-1.70;99.90;;;;;;5005945;28;20240;-80
2023/03/16 00:15:41;;;;;;;10.33;4.00;;;-1.70;99.90;;;;;;5008760;28;20312;-81
2023/03/16 00:18:08;;;;;;;15.33;4.40;;;-1.70;99.90;;;;;;5007820;28;20956;-81
2023/03/16 00:20:35;;;;;;;9.47;4.00;;;-1.70;99.90;;;;;;5010333;28;20254;-82
2023/03/16 00:23:03;;;;;;;12.43;4.20;;;-1.80;99.90;;;;;;5009425;28;20228;-81
2023/03/16 00:25:32;;;;;;;9.63;4.37;;;-1.80;99.90;;;;;;5031715;28;20228;-81
2023/03/16 00:28:02;;;;;;;11.10;4.33;;;-1.80;99.90;;;;;;5027127;28;20310;-81
2023/03/16 00:30:30;;;;;;;7.80;4.00;;;-1.80;99.90;;;;;;5026671;28;20249;-83
2023/03/16 00:32:57;;;;;;;9.63;4.40;;;-1.80;99.90;;;;;;5021859;28;20267;-82
2023/03/16 00:35:23;;;;;;;15.70;4.13;;;-1.80;99.90;;;;;;5004205;28;20290;-80
2023/03/16 00:37:51;;;;;;;9.37;4.10;;;-1.80;99.90;;;;;;5015768;28;20220;-80
2023/03/16 00:40:19;;;;;;;12.43;3.80;;;-1.80;99.90;;;;;;5025631;28;20220;-82
2023/03/16 00:42:46;;;;;;;8.87;4.23;;;-1.80;99.90;;;;;;5024646;28;20223;-80
2023/03/16 00:45:13;;;;;;;8.27;4.10;;;-1.80;99.90;;;;;;5019173;28;20313;-80
2023/03/16 00:47:41;;;;;;;12.23;4.00;;;-1.90;99.90;;;;;;5020610;28;20659;-82
2023/03/16 00:50:10;;;;;;;8.40;3.60;;;-1.80;99.90;;;;;;5018624;28;20228;-80
2023/03/16 00:52:37;;;;;;;7.60;3.57;;;-1.80;99.90;;;;;;5024822;28;20251;-80
2023/03/16 00:55:04;;;;;;;10.90;4.07;;;-1.80;99.90;;;;;;5017283;28;20701;-81
2023/03/16 00:57:33;;;;;;;9.97;3.80;;;-1.80;99.90;;;;;;5021974;28;20230;-80
2023/03/16 01:00:07;;;;;;;8.63;4.67;;;-1.90;99.90;;;;;;5013776;28;20299;-80
2023/03/16 01:02:36;;;;;;;12.07;4.57;;;-1.90;99.90;;;;;;5030248;28;20706;-80
2023/03/16 01:05:04;;;;;;;10.63;4.50;;;-1.90;99.90;;;;;;5014966;28;20235;-79
2023/03/16 01:07:31;;;;;;;9.50;5.47;;;-1.90;99.90;;;;;;5034615;28;20316;-81
2023/03/16 01:09:58;;;;;;;7.73;4.17;;;-1.90;99.90;;;;;;5025445;28;20220;-82
2023/03/16 01:12:26;;;;;;;7.93;3.40;;;-1.90;99.90;;;;;;5034233;28;20351;-81
2023/03/16 01:14:55;;;;;;;9.50;3.83;;;-1.90;99.90;;;;;;5028237;28;20310;-81
2023/03/16 01:17:22;;;;;;;8.33;4.20;;;-1.90;99.90;;;;;;5027389;28;20751;-82
2023/03/16 01:19:50;;;;;;;13.00;4.30;;;-1.90;99.90;;;;;;5028926;28;20223;-81
2023/03/16 01:22:17;;;;;;;8.83;3.47;;;-1.90;99.90;;;;;;5017525;28;20231;-83
2023/03/16 01:24:45;;;;;;;7.43;3.57;;;-1.90;99.90;;;;;;5010033;28;20705;-82
2023/03/16 01:27:13;;;;;;;7.50;3.60;;;-1.90;99.90;;;;;;5023547;28;20256;-82
2023/03/16 01:29:42;;;;;;;6.07;2.87;;;-1.90;99.90;;;;;;5017633;28;20248;-81
2023/03/16 01:32:12;;;;;;;8.20;3.77;;;-1.90;99.90;;;;;;5020357;28;20232;-83
2023/03/16 01:34:39;;;;;;;9.13;3.80;;;-2.00;99.90;;;;;;5014692;28;20251;-81
2023/03/16 01:37:06;;;;;;;7.27;3.13;;;-1.90;99.90;;;;;;5026250;28;20254;-81
2023/03/16 01:39:42;;;;;;;7.57;3.60;;;-2.00;99.90;;;;;;5027343;28;20231;-83
2023/03/16 01:42:10;;;;;;;5.27;3.67;;;-2.00;99.90;;;;;;5023808;28;20677;-82
2023/03/16 01:44:54;;;;;;;10.73;3.70;;;-2.00;99.90;;;;;;5027365;28;20235;-81
2023/03/16 01:47:24;;;;;;;7.67;3.47;;;-2.00;99.90;;;;;;5023480;28;20258;-81
2023/03/16 01:49:54;;;;;;;8.57;3.20;;;-2.00;99.90;;;;;;5019185;28;20824;-81
2023/03/16 01:52:27;;;;;;;15.23;3.87;;;-2.00;99.90;;;;;;5023083;28;20235;-82
2023/03/16 01:54:58;;;;;;;9.53;3.77;;;-2.00;99.90;;;;;;5028847;28;20306;-81
2023/03/16 01:57:29;;;;;;;7.40;3.67;;;-2.00;99.90;;;;;;5030528;28;20969;-82
2023/03/16 02:00:10;;;;;;;13.13;3.83;;;-2.00;99.90;;;;;;5028728;28;20226;-82
2023/03/16 02:02:53;;;;;;;6.33;3.80;;;-2.00;99.90;;;;;;5022244;28;20592;-81
2023/03/16 02:05:33;;;;;;;6.23;3.30;;;-2.00;99.90;;;;;;5026520;28;20239;-82
2023/03/16 02:08:02;;;;;;;7.17;3.73;;;-2.00;99.90;;;;;;5019892;28;20319;-81
2023/03/16 02:10:30;;;;;;;7.70;3.60;;;-2.00;99.90;;;;;;5024762;28;20228;-81
2023/03/16 02:12:57;;;;;;;8.03;4.07;;;-2.10;99.90;;;;;;5026593;28;20228;-81
2023/03/16 02:15:26;;;;;;;8.77;3.60;;;-2.10;99.90;;;;;;5019907;28;20249;-82
2023/03/16 02:17:56;;;;;;;6.90;3.70;;;-2.10;99.90;;;;;;5020467;28;20633;-82
2023/03/16 02:20:33;;;;;;;7.83;3.40;;;-2.10;99.90;;;;;;5019907;28;20239;-81
2023/03/16 02:23:00;;;;;;;5.97;4.00;;;-2.10;99.90;;;;;;5020435;28;20231;-82
2023/03/16 02:25:34;;;;;;;8.60;3.33;;;-2.10;99.90;;;;;;5022822;28;20235;-81
2023/03/16 02:28:08;;;;;;;9.20;3.80;;;-2.10;99.90;;;;;;5024256;28;20220;-82
2023/03/16 02:30:41;;;;;;;8.60;3.20;;;-2.10;99.90;;;;;;5021971;28;20237;-81
2023/03/16 02:33:09;;;;;;;9.13;3.77;;;-2.20;99.90;;;;;;5022466;28;20302;-82
2023/03/16 02:35:36;;;;;;;8.90;3.90;;;-2.20;99.90;;;;;;5024361;28;20312;-82
2023/03/16 02:38:03;;;;;;;9.93;3.30;;;-2.10;99.90;;;;;;5029691;28;20703;-81
2023/03/16 02:40:36;;;;;;;20.17;4.33;;;-2.20;99.90;;;;;;5025322;28;20293;-81
2023/03/16 02:43:12;;;;;;;7.70;3.43;;;-2.20;99.90;;;;;;5022110;28;20230;-81
2023/03/16 02:45:50;;;;;;;9.97;3.90;;;-2.20;99.90;;;;;;5026411;28;20224;-81
2023/03/16 02:48:22;;;;;;;9.33;3.33;;;-2.20;99.90;;;;;;5024840;28;20239;-81
2023/03/16 02:50:52;;;;;;;5.97;3.00;;;-2.20;99.90;;;;;;5027313;28;20584;-82
2023/03/16 02:53:20;;;;;;;6.83;3.47;;;-2.20;99.90;;;;;;5024344;28;20232;-81
2023/03/16 02:55:47;;;;;;;4.73;3.40;;;-2.20;99.90;;;;;;5026114;28;20472;-82
2023/03/16 02:58:14;;;;;;;8.77;2.87;;;-2.20;99.90;;;;;;5030668;28;20247;-82
2023/03/16 03:00:42;;;;;;;11.63;3.97;;;-2.20;99.90;;;;;;5033438;28;20931;-83
2023/03/16 03:03:10;;;;;;;10.87;3.93;;;-2.20;99.90;;;;;;5008736;28;20259;-81
2023/03/16 03:05:38;;;;;;;7.77;3.20;;;-2.20;99.90;;;;;;5020205;28;20297;-82
2023/03/16 03:08:05;;;;;;;9.27;3.70;;;-2.20;99.90;;;;;;5029848;28;20718;-81
2023/03/16 03:10:32;;;;;;;8.67;3.57;;;-2.10;99.90;;;;;;5029516;28;20298;-81
2023/03/16 03:12:59;;;;;;;12.30;3.93;;;-2.10;99.90;;;;;;5033768;28;20226;-81
2023/03/16 03:15:26;;;;;;;6.40;3.00;;;-2.10;99.90;;;;;;5028764;28;20224;-81
2023/03/16 03:18:01;;;;;;;7.93;3.70;;;-2.10;99.90;;;;;;5023658;28;20302;-81
2023/03/16 03:20:32;;;;;;;6.40;2.90;;;-2.10;99.90;;;;;;5019283;28;20222;-81
2023/03/16 03:22:59;;;;;;;7.57;3.60;;;-2.10;99.90;;;;;;5021457;28;20230;-80
2023/03/16 03:25:26;;;;;;;9.73;3.47;;;-2.10;99.90;;;;;;5022280;28;20235;-80
2023/03/16 03:27:54;;;;;;;6.90;3.30;;;-2.10;99.90;;;;;;5017559;28;20251;-80
2023/03/16 03:30:24;;;;;;;8.50;3.30;;;-2.10;99.90;;;;;;5024741;28;20232;-80
2023/03/16 03:32:52;;;;;;;6.73;3.10;;;-2.00;99.90;;;;;;5022243;28;20221;-80
2023/03/16 03:35:21;;;;;;;10.40;3.43;;;-2.10;99.90;;;;;;5014079;28;20231;-80
2023/03/16 03:37:50;;;;;;;7.00;2.97;;;-2.10;99.90;;;;;;5021170;28;20602;-81
2023/03/16 03:40:19;;;;;;;5.77;3.80;;;-2.10;99.90;;;;;;5038363;28;20222;-80
2023/03/16 03:42:50;;;;;;;6.60;3.73;;;-2.10;99.90;;;;;;5020664;28;20232;-81
2023/03/16 03:45:17;;;;;;;7.40;3.87;;;-2.10;99.90;;;;;;5023287;28;20250;-82
2023/03/16 03:47:44;;;;;;;7.53;3.10;;;-2.10;99.90;;;;;;5008822;28;20259;-82
2023/03/16 03:50:17;;;;;;;7.07;3.30;;;-2.10;99.90;;;;;;5019836;28;20221;-81
2023/03/16 03:53:12;;;;;;;12.60;4.17;;;-2.20;99.90;;;;;;5012453;28;20786;-82
2023/03/16 03:55:58;;;;;;;8.97;3.43;;;-2.20;99.90;;;;;;5026294;28;20241;-81
2023/03/16 03:58:25;;;;;;;7.23;3.03;;;-2.20;99.90;;;;;;5016268;28;20233;-81
2023/03/16 04:00:52;;;;;;;7.33;3.13;;;-2.20;99.90;;;;;;5011263;28;20228;-81
2023/03/16 04:03:20;;;;;;;7.40;2.87;;;-2.20;99.90;;;;;;5025240;28;20224;-81
2023/03/16 04:05:47;;;;;;;10.40;3.43;;;-2.20;99.90;;;;;;5017830;28;20422;-80
2023/03/16 04:08:16;;;;;;;5.73;2.50;;;-2.20;99.90;;;;;;5018061;28;20336;-82
2023/03/16 04:10:43;;;;;;;9.17;3.43;;;-2.20;99.90;;;;;;5021989;28;20598;-82
2023/03/16 04:13:10;;;;;;;9.67;2.77;;;-2.20;99.90;;;;;;5021274;28;20228;-80
2023/03/16 04:15:38;;;;;;;6.90;2.63;;;-2.30;99.90;;;;;;5022425;28;20304;-80
2023/03/16 04:18:16;;;;;;;7.13;2.80;;;-2.20;99.90;;;;;;5017653;28;20229;-81
2023/03/16 04:20:43;;;;;;;9.93;3.17;;;-2.20;99.90;;;;;;5019275;28;20251;-81
2023/03/16 04:23:16;;;;;;;6.57;2.83;;;-2.20;99.90;;;;;;5018215;28;20223;-81
2023/03/16 04:25:44;;;;;;;6.93;2.90;;;-2.20;99.90;;;;;;5039123;28;20223;-81
2023/03/16 04:28:16;;;;;;;7.40;3.03;;;-2.20;99.90;;;;;;5034851;28;20217;-80
2023/03/16 04:30:44;;;;;;;8.03;2.90;;;-2.20;99.90;;;;;;5017064;28;20229;-80
2023/03/16 04:33:23;;;;;;;9.60;2.93;;;-2.20;99.90;;;;;;5013941;28;20256;-81
2023/03/16 04:35:51;;;;;;;7.87;2.90;;;-2.10;99.90;;;;;;5024667;28;20233;-81
2023/03/16 04:38:21;;;;;;;4.93;2.83;;;-2.10;99.90;;;;;;5023624;28;20228;-82
2023/03/16 04:40:56;;;;;;;4.87;2.73;;;-2.10;99.90;;;;;;5025713;28;20236;-81
2023/03/16 04:43:27;;;;;;;7.43;3.00;;;-2.10;99.90;;;;;;5023552;28;21616;-81
2023/03/16 04:45:59;;;;;;;6.83;2.73;;;-2.10;99.90;;;;;;5023046;28;20218;-81
2023/03/16 04:48:29;;;;;;;8.10;2.60;;;-2.10;99.90;;;;;;5017894;28;20232;-81
2023/03/16 04:50:56;;;;;;;5.27;2.50;;;-2.00;99.90;;;;;;5022452;28;20224;-80
2023/03/16 04:53:25;;;;;;;6.60;2.80;;;-2.00;99.90;;;;;;5021037;28;20244;-81
2023/03/16 04:55:59;;;;;;;5.40;3.00;;;-2.00;99.90;;;;;;5022041;28;20236;-81
2023/03/16 04:58:26;;;;;;;5.23;2.87;;;-2.00;99.90;;;;;;5017697;28;20232;-80
2023/03/16 05:00:55;;;;;;;6.87;2.70;;;-2.00;99.90;;;;;;5006725;28;20229;-81
2023/03/16 05:03:26;;;;;;;6.27;2.80;;;-2.00;99.90;;;;;;5017741;28;20696;-81
2023/03/16 05:05:53;;;;;;;4.93;2.50;;;-2.00;99.90;;;;;;5018972;28;20601;-81
2023/03/16 05:08:19;;;;;;;7.00;2.80;;;-2.00;99.90;;;;;;5018465;28;20685;-81
2023/03/16 05:10:51;;;;;;;7.50;2.53;;;-1.90;99.90;;;;;;5020138;28;20839;-81
2023/03/16 05:13:19;;;;;;;5.57;2.60;;;-1.90;99.90;;;;;;5015476;28;20248;-81
2023/03/16 05:15:49;;;;;;;13.60;2.73;;;-1.90;99.90;;;;;;5016384;28;20253;-81
2023/03/16 05:18:22;;;;;;;7.73;2.80;;;-1.80;99.90;;;;;;5019571;28;20275;-82
2023/03/16 05:20:50;;;;;;;8.13;2.53;;;-1.70;99.90;;;;;;5018753;28;20258;-80
2023/03/16 05:23:17;;;;;;;8.50;2.50;;;-1.80;99.90;;;;;;5024346;28;20895;-80
2023/03/16 05:25:55;;;;;;;5.20;2.33;;;-1.70;99.90;;;;;;5025931;28;20618;-79
2023/03/16 05:28:26;;;;;;;6.03;2.53;;;-1.70;99.90;;;;;;5025525;28;20224;-79
2023/03/16 05:31:05;;;;;;;7.07;2.50;;;-1.70;99.90;;;;;;5024954;28;20327;-78
2023/03/16 05:33:39;;;;;;;6.67;2.50;;;-1.70;99.90;;;;;;5023219;28;20234;-78
2023/03/16 05:36:12;;;;;;;8.53;2.70;;;-1.60;99.90;;;;;;5020431;28;20232;-79
2023/03/16 05:38:42;;;;;;;13.77;3.53;;;-1.60;99.90;;;;;;5028221;28;20225;-78
2023/03/16 05:41:13;;;;;;;7.83;2.60;;;-1.60;99.90;;;;;;5019119;28;20226;-78
2023/03/16 05:43:58;;;;;;;6.70;2.70;;;-1.60;99.90;;;;;;5030145;28;20234;-79
2023/03/16 05:46:32;;;;;;;8.53;3.00;;;-1.50;99.90;;;;;;5027752;28;20654;-79
2023/03/16 05:49:00;;;;;;;5.67;2.50;;;-1.60;99.90;;;;;;5029722;28;20221;-79
2023/03/16 05:51:29;;;;;;;5.53;2.33;;;-1.50;99.90;;;;;;5029021;28;20285;-79
2023/03/16 05:53:57;;;;;;;7.63;2.67;;;-1.50;99.90;;;;;;5029177;28;20231;-80
2023/03/16 05:56:44;;;;;;;6.13;2.40;;;-1.50;99.90;;;;;;5028639;28;20258;-79
2023/03/16 05:59:11;;;;;;;9.27;3.23;;;-1.40;99.90;;;;;;5028163;28;20293;-79
2023/03/16 06:01:38;;;;;;;5.70;2.30;;;-1.40;99.90;;;;;;5026264;28;20856;-78
2023/03/16 06:04:06;;;;;;;5.53;2.87;;;-1.30;99.90;;;;;;5014396;28;20220;-79
2023/03/16 06:06:36;;;;;;;9.93;2.63;;;-1.30;99.90;;;;;;5025279;28;20223;-79
2023/03/16 06:09:25;;;;;;;7.10;2.70;;;-1.20;99.90;;;;;;5010646;28;20308;-80
2023/03/16 06:11:54;;;;;;;6.30;2.60;;;-1.10;99.90;;;;;;5049008;28;20676;-81
2023/03/16 06:14:22;;;;;;;8.30;2.37;;;-1.00;99.90;;;;;;5029765;28;20229;-79
2023/03/16 06:16:50;;;;;;;7.77;2.83;;;-0.80;99.90;;;;;;5020537;28;20644;-80
2023/03/16 06:19:17;;;;;;;6.67;2.73;;;-0.70;99.90;;;;;;5010392;28;20255;-79
2023/03/16 06:21:47;;;;;;;6.50;2.80;;;-0.60;99.90;;;;;;5017962;28;20230;-79
2023/03/16 06:24:13;;;;;;;5.70;2.47;;;-0.50;99.90;;;;;;5026270;28;20251;-79
2023/03/16 06:26:40;;;;;;;8.87;3.90;;;-0.40;99.90;;;;;;5010698;28;20237;-80
2023/03/16 06:29:12;;;;;;;5.20;2.63;;;-0.40;99.90;;;;;;5020645;28;20233;-79
2023/03/16 06:31:40;;;;;;;6.03;3.30;;;-0.30;99.90;;;;;;5031401;28;20224;-79
2023/03/16 06:34:07;;;;;;;8.20;2.90;;;-0.30;99.90;;;;;;5022762;28;20259;-80
2023/03/16 06:36:34;;;;;;;5.67;2.40;;;-0.20;99.90;;;;;;5032064;28;20229;-80
2023/03/16 06:39:03;;;;;;;8.47;2.70;;;-0.20;99.90;;;;;;5025415;28;20783;-79
2023/03/16 06:41:49;;;;;;;8.23;3.03;;;-0.10;99.90;;;;;;5023585;23;20213;-96
2023/03/16 06:44:51;;;;;;;6.50;2.63;;;0.00;99.90;;;;;;4998745;28;20207;-96
2023/03/16 06:47:20;;;;;;;8.17;2.90;;;0.10;99.90;;;;;;5007176;28;20209;-96
2023/03/16 06:49:54;;;;;;;7.83;2.77;;;0.20;99.90;;;;;;5035317;28;20196;-96
2023/03/16 06:52:23;;;;;;;7.60;3.07;;;0.40;99.90;;;;;;5010120;28;20258;-96
2023/03/16 06:57:42;;;;;;;5.03;2.80;;;0.50;99.90;;;;;;5016562;28;20210;-96
2023/03/16 07:00:14;;;;;;;8.20;2.47;;;0.70;99.90;;;;;;5006171;28;20385;-96
2023/03/16 07:02:53;;;;;;;;;;;;;;;;;;;;;
2023/03/16 07:05:43;;;;;;;5.83;2.50;;;0.70;99.90;;;;;;5046461;28;20221;-96
2023/03/16 07:08:13;;;;;;;6.33;2.67;;;0.90;99.90;;;;;;5015039;28;20269;-96
2023/03/16 07:10:58;;;;;;;6.00;2.50;;;0.90;99.90;;;;;;5043263;28;20201;-96
2023/03/16 07:13:34;;;;;;;6.43;2.67;;;0.90;99.90;;;;;;5005686;28;20199;-96
2023/03/16 07:16:12;;;;;;;4.93;2.17;;;1.00;99.90;;;;;;4999551;28;20269;-96
2023/03/16 07:18:45;;;;;;;6.67;2.87;;;1.00;99.90;;;;;;4973162;28;20193;-96
2023/03/16 07:24:04;;;;;;;6.80;2.77;;;1.10;99.90;;;;;;5025892;23;20225;-83
2023/03/16 07:26:36;;;;;;;7.47;2.97;;;1.10;99.90;;;;;;5012003;28;20229;-80
2023/03/16 07:29:05;;;;;;;4.07;2.53;;;1.20;99.90;;;;;;5013422;28;20329;-79
2023/03/16 07:31:34;;;;;;;8.30;2.90;;;1.20;99.90;;;;;;5010309;28;20237;-78
2023/03/16 07:34:04;;;;;;;7.37;2.70;;;1.30;99.90;;;;;;5026951;28;20295;-78
2023/03/16 07:36:37;;;;;;;9.13;2.90;;;1.40;99.90;;;;;;5022481;28;20218;-79
2023/03/16 07:39:05;;;;;;;6.63;2.53;;;1.50;99.90;;;;;;5015659;28;20232;-78
2023/03/16 07:41:32;;;;;;;7.70;3.10;;;1.50;99.90;;;;;;5032533;28;20232;-78
2023/03/16 07:44:14;;;;;;;7.07;2.40;;;1.60;99.90;;;;;;5017186;28;20276;-78
2023/03/16 07:46:42;;;;;;;5.50;2.37;;;1.70;99.90;;;;;;5021530;28;20288;-78
2023/03/16 07:49:11;;;;;;;5.27;2.20;;;1.80;99.90;;;;;;5007299;28;20230;-78
2023/03/16 07:51:38;;;;;;;9.33;2.57;;;1.90;99.90;;;;;;5017392;28;20226;-78
2023/03/16 07:54:06;;;;;;;4.17;2.00;;;1.90;99.90;;;;;;5020946;28;20254;-79
2023/03/16 07:56:35;;;;;;;5.00;2.30;;;2.00;99.90;;;;;;5009089;28;20280;-79
2023/03/16 07:59:02;;;;;;;6.90;2.43;;;2.10;99.90;;;;;;5017742;28;20226;-78
2023/03/16 08:01:30;;;;;;;5.80;2.27;;;2.20;99.90;;;;;;5025802;28;20229;-77
2023/03/16 08:03:58;;;;;;;5.17;2.13;;;2.30;99.90;;;;;;5018135;28;20289;-78
2023/03/16 08:06:25;;;;;;;5.33;2.23;;;2.40;99.90;;;;;;5020927;28;20648;-79
2023/03/16 08:08:52;;;;;;;8.67;2.30;;;2.50;99.90;;;;;;5023823;28;20778;-78
2023/03/16 08:11:26;;;;;;;7.10;2.10;;;2.80;99.90;;;;;;5026639;28;20222;-79
2023/03/16 08:13:57;;;;;;;5.00;2.30;;;2.90;99.90;;;;;;5023008;28;20230;-79
2023/03/16 08:16:28;;;;;;;4.43;2.10;;;3.10;99.90;;;;;;5017368;28;20220;-78
2023/03/16 08:18:58;;;;;;;5.57;2.53;;;3.30;99.90;;;;;;5003407;23;20223;-80
2023/03/16 08:21:27;;;;;;;4.93;2.20;;;3.40;99.90;;;;;;5021947;28;20923;-77
2023/03/16 08:23:54;;;;;;;4.50;2.00;;;3.60;99.90;;;;;;5024618;23;20307;-80
2023/03/16 08:26:22;;;;;;;6.27;2.10;;;3.70;99.60;;;;;;4971168;23;20227;-78
2023/03/16 08:28:53;;;;;;;7.00;2.50;;;4.00;99.90;;;;;;5013010;23;20803;-78
2023/03/16 08:31:22;;;;;;;5.23;2.20;;;4.20;99.60;;;;;;4960196;23;20336;-79
2023/03/16 08:33:54;;;;;;;5.30;1.80;;;4.40;99.90;;;;;;4994121;23;20304;-79
2023/03/16 08:36:28;;;;;;;6.77;2.00;;;4.60;99.90;;;;;;5032760;23;20225;-79
2023/03/16 08:38:58;;;;;;;4.17;2.10;;;4.80;99.90;;;;;;5017917;23;20585;-80
2023/03/16 08:41:29;;;;;;;5.53;1.80;;;4.80;98.60;;;;;;4999122;28;20228;-77
2023/03/16 08:43:56;;;;;;;7.47;2.40;;;4.90;98.10;;;;;;4997939;23;20317;-78
2023/03/16 08:46:23;;;;;;;11.63;5.63;;;5.00;98.60;;;;;;4994184;23;20614;-80
2023/03/16 08:51:31;;;;;;;5.70;2.00;;;5.30;98.30;;;;;;5005244;23;20322;-78
2023/03/16 08:53:58;;;;;;;5.77;1.90;;;5.50;98.60;;;;;;4983431;23;20324;-78
2023/03/16 08:56:26;;;;;;;6.73;1.90;;;5.70;97.20;;;;;;4989685;23;20233;-77
2023/03/16 08:58:53;;;;;;;3.23;1.60;;;6.00;97.40;;;;;;4993793;23;20311;-77
2023/03/16 09:01:21;;;;;;;3.97;1.80;;;6.40;97.20;;;;;;5017443;28;20338;-77
2023/03/16 09:03:48;;;;;;;5.10;2.13;;;6.60;95.70;;;;;;5007662;23;20236;-79
2023/03/16 09:06:18;;;;;;;5.00;1.70;;;6.90;95.40;;;;;;4971522;28;20949;-80
2023/03/16 09:08:46;;;;;;;3.03;1.70;;;7.00;94.70;;;;;;5005300;28;20231;-79
2023/03/16 09:11:15;;;;;;;4.83;2.00;;;7.30;94.60;;;;;;5026713;28;20234;-79
2023/03/16 09:13:43;;;;;;;2.93;1.43;;;7.50;93.60;;;;;;5041232;23;20233;-77
2023/03/16 09:16:12;;;;;;;3.63;1.90;;;7.70;94.70;;;;;;5006559;23;20317;-82
2023/03/16 09:18:40;;;;;;;4.73;1.67;;;8.00;95.00;;;;;;4992341;23;20239;-79
2023/03/16 09:21:09;;;;;;;6.03;2.10;;;8.10;93.20;;;;;;5009522;23;20281;-81
2023/03/16 09:23:37;;;;;;;4.57;2.00;;;8.20;93.20;;;;;;5023765;23;20227;-80
2023/03/16 09:26:07;;;;;;;3.50;1.53;;;8.30;92.10;;;;;;5026578;28;20230;-82
2023/03/16 09:28:37;;;;;;;4.13;1.47;;;8.30;91.40;;;;;;5022542;23;20224;-80
2023/03/16 09:31:04;;;;;;;5.77;1.57;;;8.30;91.90;;;;;;5002550;23;20227;-79
2023/03/16 09:33:34;;;;;;;4.83;1.83;;;8.30;91.20;;;;;;4977210;23;20230;-78
2023/03/16 09:36:01;;;;;;;5.77;2.00;;;8.40;92.10;;;;;;5032595;23;20239;-79
2023/03/16 09:38:30;;;;;;;5.50;2.00;;;8.40;91.40;;;;;;5008159;28;20276;-79
2023/03/16 09:40:59;;;;;;;4.30;1.40;;;8.40;90.80;;;;;;5006041;28;20232;-79
2023/03/16 09:43:50;;;;;;;4.60;1.77;;;8.40;91.30;;;;;;5004137;23;20223;-78
2023/03/16 09:46:25;;;;;;;4.73;1.53;;;8.40;90.80;;;;;;5016762;23;20213;-80
2023/03/16 09:48:54;;;;;;;5.83;1.27;;;8.30;88.70;;;;;;4974445;23;20309;-82
2023/03/16 09:53:56;;;;;;;2.17;1.20;;;8.40;90.20;;;;;;5017583;23;20227;-78
2023/03/16 09:56:30;;;;;;;5.30;1.57;;;8.60;90.60;;;;;;4999465;28;20234;-80
2023/03/16 09:58:59;;;;;;;4.23;1.30;;;8.60;87.80;;;;;;4998244;28;20234;-81
2023/03/16 10:01:38;;;;;;;5.30;1.60;;;8.70;86.30;;;;;;5008422;23;20268;-84
2023/03/16 10:04:16;;;;;;;8.53;1.30;;;8.80;88.30;;;;;;5005810;23;20809;-78
2023/03/16 10:06:50;;;;;;;3.90;1.50;;;8.80;84.90;;;;;;5043414;28;20216;-79
2023/03/16 10:09:25;;;;;;;3.13;1.30;;;8.80;87.00;;;;;;5021614;28;20227;-81
2023/03/16 10:12:01;;;;;;;3.40;1.20;;;8.80;86.40;;;;;;5028258;23;20221;-79
2023/03/16 10:14:37;;;;;;;4.87;1.50;;;8.90;86.70;;;;;;5001395;23;20227;-85
2023/03/16 10:17:07;;;;;;;4.23;2.57;;;9.00;88.30;;;;;;5025419;23;20243;-78
2023/03/16 10:19:39;;;;;;;3.00;1.20;;;9.10;90.10;;;;;;5026421;23;20216;-79
2023/03/16 10:22:17;;;;;;;3.77;1.23;;;9.00;87.40;;;;;;5038210;28;20220;-78
2023/03/16 10:27:26;;;;;;;4.50;1.50;;;8.80;84.70;;;;;;4951010;28;20234;-79
2023/03/16 10:32:35;;;;;;;3.57;1.27;;;8.70;85.10;;;;;;5015810;23;20279;-79
2023/03/16 10:35:11;;;;;;;4.50;1.70;;;8.90;87.90;;;;;;5021280;23;20243;-80
2023/03/16 10:40:11;;;;;;;2.97;1.30;;;9.00;82.70;;;;;;5019959;23;20246;-77
2023/03/16 10:48:05;;;;;;;2.87;1.23;;;9.10;84.60;;;;;;5008820;23;20224;-77
2023/03/16 10:53:18;;;;;;;3.90;1.63;;;9.20;84.30;;;;;;5014341;23;20251;-78
2023/03/16 10:55:47;;;;;;;2.43;1.33;;;9.10;82.50;;;;;;4994675;23;20224;-80
2023/03/16 10:58:24;;;;;;;3.40;1.30;;;9.20;83.30;;;;;;5014971;23;20255;-80
2023/03/16 11:00:52;;;;;;;4.03;1.10;;;9.20;82.40;;;;;;5050396;28;20228;-84
2023/03/16 11:03:26;;;;;;;2.50;0.97;;;9.30;82.80;;;;;;5012271;28;20259;-82
2023/03/16 11:06:01;;;;;;;3.40;1.40;;;9.30;80.10;;;;;;5028936;28;20237;-81
2023/03/16 11:08:32;;;;;;;1.63;1.03;;;9.30;82.30;;;;;;5027404;28;20233;-81
2023/03/16 11:11:07;;;;;;;2.80;1.20;;;9.40;80.50;;;;;;5021669;28;20230;-81
2023/03/16 11:13:36;;;;;;;2.13;0.70;;;9.40;82.40;;;;;;5030943;28;20595;-83
2023/03/16 11:16:07;;;;;;;3.40;1.00;;;9.40;79.50;;;;;;5033012;28;20336;-84
2023/03/16 11:18:38;;;;;;;1.60;0.80;;;9.40;73.40;;;;;;5025287;28;20238;-81
2023/03/16 11:21:12;;;;;;;3.93;0.90;;;9.40;75.20;;;;;;5029787;28;20231;-81
2023/03/16 11:23:44;;;;;;;3.40;0.90;;;9.40;72.00;;;;;;5025112;28;20279;-82
2023/03/16 11:26:20;;;;;;;2.80;0.70;;;9.40;70.60;;;;;;5015759;28;20234;-85
2023/03/16 11:28:53;;;;;;;2.07;0.70;;;9.40;65.60;;;;;;5020626;28;20219;-81
2023/03/16 11:31:26;;;;;;;1.80;0.63;;;9.50;67.80;;;;;;5014818;28;20236;-82
2023/03/16 11:33:56;;;;;;;2.20;0.73;;;9.60;66.50;;;;;;5030693;28;20859;-81
2023/03/16 11:36:38;;;;;;;1.67;0.60;;;9.70;67.30;;;;;;5030689;28;20287;-81
2023/03/16 11:39:15;;;;;;;1.90;0.60;;;9.90;64.90;;;;;;5045962;28;20704;-82
2023/03/16 11:41:52;;;;;;;1.17;0.60;;;9.80;60.00;;;;;;5026861;28;20232;-82
2023/03/16 11:44:27;;;;;;;1.70;0.77;;;9.90;63.30;;;;;;5018718;28;20231;-82
2023/03/16 11:47:03;;;;;;;2.63;0.83;;;10.00;65.10;;;;;;5028111;28;20624;-81
2023/03/16 11:49:47;;;;;;;1.40;0.70;;;10.00;60.00;;;;;;5023690;28;20611;-81
2023/03/16 11:52:22;;;;;;;1.50;0.60;;;10.00;58.30;;;;;;5022704;28;20318;-82
2023/03/16 11:54:59;;;;;;;1.43;0.70;;;9.90;57.40;;;;;;5024263;28;20224;-82
2023/03/16 11:57:33;;;;;;;1.33;0.60;;;9.90;57.00;;;;;;5025356;28;20226;-81
2023/03/16 12:00:17;;;;;;;3.13;1.03;;;9.90;58.90;;;;;;5025232;28;20213;-81
2023/03/16 12:02:54;;;;;;;2.60;0.77;;;10.20;62.80;;;;;;5021812;28;20221;-82
2023/03/16 12:05:37;;;;;;;2.10;0.77;;;10.30;60.70;;;;;;5025897;28;20240;-81
2023/03/16 12:08:18;;;;;;;2.40;0.60;;;10.50;60.00;;;;;;5035121;28;20228;-82
2023/03/16 12:10:51;;;;;;;1.40;0.57;;;10.60;59.20;;;;;;5032481;28;20616;-81
2023/03/16 12:13:31;;;;;;;1.43;0.60;;;10.70;55.60;;;;;;5024522;28;20218;-82
2023/03/16 12:16:00;;;;;;;2.90;0.70;;;10.60;54.50;;;;;;5024340;28;20321;-81
2023/03/16 12:18:36;;;;;;;2.10;0.70;;;10.60;53.60;;;;;;5035766;28;20305;-81
2023/03/16 12:21:11;;;;;;;2.47;0.60;;;10.50;54.00;;;;;;5027866;28;20216;-83
2023/03/16 12:23:41;;;;;;;3.63;0.70;;;10.60;57.00;;;;;;5024190;28;20244;-81
2023/03/16 12:26:08;;;;;;;1.57;0.50;;;10.70;56.40;;;;;;5023805;28;20259;-83
2023/03/16 12:28:36;;;;;;;1.70;0.60;;;10.60;54.20;;;;;;5023656;28;20229;-81
2023/03/16 12:31:10;;;;;;;1.07;0.57;;;10.60;54.30;;;;;;5025551;28;20230;-81
2023/03/16 12:33:51;;;;;;;1.83;0.60;;;10.60;55.90;;;;;;5029049;28;20306;-80
2023/03/16 12:36:36;;;;;;;2.67;0.67;;;10.40;53.10;;;;;;5032680;28;20228;-81
2023/03/16 12:39:05;;;;;;;1.63;0.50;;;10.40;53.80;;;;;;5026366;28;20577;-82
2023/03/16 12:41:38;;;;;;;2.20;0.90;;;10.30;54.70;;;;;;5024022;28;20255;-81
2023/03/16 12:44:12;;;;;;;1.60;0.60;;;10.20;53.30;;;;;;5024286;28;20246;-80
2023/03/16 12:46:51;;;;;;;3.00;0.60;;;10.10;52.70;;;;;;5034890;28;20404;-82
2023/03/16 12:49:18;;;;;;;3.27;0.70;;;10.00;52.10;;;;;;5028409;28;20233;-82
2023/03/16 12:51:47;;;;;;;2.83;0.60;;;9.90;52.60;;;;;;5033157;28;20857;-81
2023/03/16 12:54:22;;;;;;;2.27;0.70;;;9.80;52.80;;;;;;5028508;28;20228;-81
2023/03/16 12:56:50;;;;;;;1.87;0.70;;;9.70;53.50;;;;;;5044426;28;20227;-81
2023/03/16 12:59:19;;;;;;;0.67;0.63;;;9.70;54.90;;;;;;5021043;28;20401;-81
2023/03/16 13:01:50;;;;;;;2.00;0.80;;;9.60;53.40;;;;;;5020118;28;20282;-81
2023/03/16 13:04:19;;;;;;;2.13;0.67;;;9.70;55.50;;;;;;5024182;28;20250;-82
2023/03/16 13:06:49;;;;;;;2.30;0.97;;;9.80;56.00;;;;;;5033622;28;20234;-82
2023/03/16 13:09:20;;;;;;;2.03;0.70;;;9.70;53.40;;;;;;5030788;28;20251;-84
2023/03/16 13:11:50;;;;;;;1.93;0.60;;;9.70;52.60;;;;;;5032558;28;20230;-81
2023/03/16 13:14:39;;;;;;;3.77;0.80;;;9.70;55.00;;;;;;5032815;28;20222;-82
2023/03/16 13:17:22;;;;;;;2.10;0.60;;;9.90;55.30;;;;;;5030693;28;20230;-81
2023/03/16 13:19:59;;;;;;;1.63;0.67;;;9.90;55.10;;;;;;5019433;28;20221;-82
2023/03/16 13:22:30;;;;;;;2.30;0.70;;;9.80;53.30;;;;;;5027512;28;20239;-81
2023/03/16 13:25:10;;;;;;;1.80;0.53;;;9.80;53.10;;;;;;5027181;28;20227;-81
2023/03/16 13:27:39;;;;;;;2.97;0.57;;;9.80;53.60;;;;;;5028632;28;20224;-81
2023/03/16 13:30:18;;;;;;;4.50;0.70;;;9.70;53.00;;;;;;5025152;28;20229;-81
2023/03/16 13:32:45;;;;;;;3.03;0.77;;;9.80;53.90;;;;;;5034258;28;20228;-81
2023/03/16 13:35:14;;;;;;;1.67;0.70;;;9.80;52.60;;;;;;5030153;28;20233;-81
2023/03/16 13:37:44;;;;;;;1.23;0.50;;;9.70;52.60;;;;;;5028203;28;20215;-81